Terminal Aerodrome Forecast
Issued by NWS

Home | Current Version | Previous Version | Text Only | Print | Product List | Glossary On
Versions: 1 2 3 4 5 6 7 8 9 10 11 12 13 14 15 16 17 18 19 20 21
000
FTUS44 KCRP 162200 AAA
TAFALI
TAF AMD
KALI 162238Z 1623/1718 VRB06KT P6SM VCTS FEW025CB BKN150
      TEMPO 1623/1701 VRB15G25KT 4SM -SHRA OVC020
     FM170200 09005KT P6SM SCT040
     FM170800 12004KT P6SM BKN015 OVC100
      TEMPO 1710/1713 5SM BR
     FM171500 13007KT P6SM VCSH BKN025=

USA.gov is the U.S. government's official web portal to all federal, state and local government web resources and services.